createdAt,value
2023-04-27T00:00:11.000Z,0
2023-04-27T00:01:27.000Z,0
2023-04-27T00:02:43.000Z,0
2023-04-27T00:03:58.142Z,0
2023-04-27T00:05:15.000Z,0
2023-04-27T00:06:31.000Z,0
2023-04-27T00:07:46.710Z,0
2023-04-27T00:09:03.000Z,0
2023-04-27T00:10:20.000Z,0
2023-04-27T00:11:36.000Z,0
2023-04-27T00:12:52.000Z,0
2023-04-27T00:14:07.655Z,0
2023-04-27T00:15:24.000Z,0
2023-04-27T00:16:41.000Z,0
2023-04-27T00:17:57.000Z,0
2023-04-27T00:19:13.000Z,0
2023-04-27T00:20:28.000Z,0
2023-04-27T00:21:44.000Z,0
2023-04-27T00:23:01.000Z,0
2023-04-27T00:24:17.000Z,0
2023-04-27T00:25:33.000Z,0
2023-04-27T00:26:48.563Z,0
2023-04-27T00:28:05.000Z,0
2023-04-27T00:29:21.000Z,0
2023-04-27T00:30:38.000Z,0
2023-04-27T00:31:54.000Z,0
2023-04-27T00:33:10.000Z,0
2023-04-27T00:34:26.000Z,0
2023-04-27T00:35:42.000Z,0
2023-04-27T00:36:58.000Z,0
2023-04-27T00:38:13.282Z,0
2023-04-27T00:39:30.000Z,0
2023-04-27T00:40:46.000Z,0
2023-04-27T00:42:02.000Z,0
2023-04-27T00:43:18.038Z,0
2023-04-27T00:44:35.000Z,0
2023-04-27T00:45:51.000Z,0
2023-04-27T00:47:06.606Z,0
2023-04-27T00:48:23.000Z,0
2023-04-27T00:49:39.000Z,0
2023-04-27T00:50:56.000Z,0
2023-04-27T00:52:12.000Z,0
2023-04-27T00:53:26.568Z,0
2023-04-27T00:54:42.756Z,0
2023-04-27T00:55:59.000Z,0
2023-04-27T00:57:15.134Z,0
2023-04-27T00:58:32.000Z,0
2023-04-27T00:59:48.000Z,0
2023-04-27T01:01:04.000Z,0
2023-04-27T01:02:20.000Z,0
2023-04-27T01:03:36.079Z,0
2023-04-27T01:04:53.000Z,0
2023-04-27T01:06:09.000Z,0
2023-04-27T01:07:25.000Z,0
2023-04-27T01:08:40.836Z,0
2023-04-27T01:09:57.000Z,0
2023-04-27T01:11:12.230Z,0
2023-04-27T01:12:28.420Z,0
2023-04-27T01:13:44.608Z,0
2023-04-27T01:15:01.000Z,0
2023-04-27T01:16:17.000Z,0
2023-04-27T01:17:33.000Z,0
2023-04-27T01:18:48.387Z,0
2023-04-27T01:20:05.000Z,0
2023-04-27T01:21:21.000Z,0
2023-04-27T01:22:36.958Z,0
2023-04-27T01:23:54.000Z,0
2023-04-27T01:25:09.339Z,0
2023-04-27T01:26:26.000Z,0
2023-04-27T01:27:41.720Z,0
2023-04-27T01:28:58.000Z,0
2023-04-27T01:30:15.000Z,0
2023-04-27T01:31:30.291Z,0
2023-04-27T01:32:46.481Z,0
2023-04-27T01:34:01.688Z,0
2023-04-27T01:35:17.879Z,0
2023-04-27T01:36:35.000Z,0
2023-04-27T01:37:51.000Z,0
2023-04-27T01:39:07.000Z,0
2023-04-27T01:40:22.641Z,0
2023-04-27T01:41:39.000Z,0
2023-04-27T01:42:56.000Z,0
2023-04-27T01:44:12.000Z,0
2023-04-27T01:45:28.000Z,0
2023-04-27T01:46:44.000Z,0
2023-04-27T01:48:00.000Z,0
2023-04-27T01:49:16.000Z,0
2023-04-27T01:50:32.000Z,0
2023-04-27T01:51:47.371Z,0
2023-04-27T01:53:04.000Z,0
2023-04-27T01:54:20.000Z,0
2023-04-27T01:55:35.943Z,0
2023-04-27T01:56:52.134Z,0
2023-04-27T01:58:09.000Z,0
2023-04-27T01:59:25.000Z,0
2023-04-27T02:00:41.000Z,0
2023-04-27T02:01:57.000Z,0
2023-04-27T02:03:14.000Z,0
2023-04-27T02:04:30.000Z,0
2023-04-27T02:05:46.000Z,0
2023-04-27T02:07:01.000Z,0
2023-04-27T02:08:17.000Z,0
2023-04-27T02:09:33.058Z,0
2023-04-27T02:10:49.249Z,0
2023-04-27T02:12:06.000Z,0
2023-04-27T02:13:22.000Z,0
2023-04-27T02:14:38.000Z,0
2023-04-27T02:15:55.000Z,0
2023-04-27T02:17:11.000Z,0
2023-04-27T02:18:26.393Z,0
2023-04-27T02:19:42.584Z,0
2023-04-27T02:20:59.000Z,0
2023-04-27T02:22:15.000Z,0
2023-04-27T02:23:31.000Z,0
2023-04-27T02:24:47.000Z,0
2023-04-27T02:26:03.000Z,0
2023-04-27T02:27:18.743Z,0
2023-04-27T02:28:34.934Z,0
2023-04-27T02:29:52.000Z,0
2023-04-27T02:31:07.315Z,0
2023-04-27T02:32:24.000Z,0
2023-04-27T02:33:40.000Z,0
2023-04-27T02:34:56.000Z,0
2023-04-27T02:36:13.000Z,0
2023-04-27T02:37:29.000Z,0
2023-04-27T02:38:45.000Z,0
2023-04-27T02:40:00.000Z,0
2023-04-27T02:41:16.000Z,0
2023-04-27T02:42:33.000Z,0
2023-04-27T02:43:49.000Z,0
2023-04-27T02:45:05.000Z,0
2023-04-27T02:46:21.000Z,0
2023-04-27T02:47:37.000Z,0
2023-04-27T02:48:54.000Z,0
2023-04-27T02:50:10.000Z,0
2023-04-27T02:51:25.381Z,0
2023-04-27T02:52:42.000Z,0
2023-04-27T02:53:58.000Z,0
2023-04-27T02:55:13.953Z,0
2023-04-27T02:56:29.161Z,0
2023-04-27T02:57:46.000Z,0
2023-04-27T02:59:02.000Z,0
2023-04-27T03:00:18.000Z,0
2023-04-27T03:01:34.000Z,0
2023-04-27T03:02:51.000Z,0
2023-04-27T03:04:07.000Z,0
2023-04-27T03:05:23.000Z,0
2023-04-27T03:06:39.000Z,0
2023-04-27T03:07:55.000Z,0
2023-04-27T03:09:12.000Z,0
2023-04-27T03:10:28.000Z,0
2023-04-27T03:11:44.000Z,0
2023-04-27T03:12:59.000Z,0
2023-04-27T03:14:15.000Z,0
2023-04-27T03:15:32.000Z,0
2023-04-27T03:16:48.000Z,0
2023-04-27T03:18:03.416Z,0
2023-04-27T03:19:20.000Z,0
2023-04-27T03:20:36.000Z,0
2023-04-27T03:21:52.000Z,0
2023-04-27T03:23:09.000Z,0
2023-04-27T03:24:25.000Z,0
2023-04-27T03:25:41.000Z,0
2023-04-27T03:26:57.000Z,0
2023-04-27T03:28:12.941Z,0
2023-04-27T03:29:29.000Z,0
2023-04-27T03:30:45.000Z,0
2023-04-27T03:32:01.000Z,0
2023-04-27T03:33:17.000Z,0
2023-04-27T03:34:33.000Z,0
2023-04-27T03:35:50.000Z,0
2023-04-27T03:37:06.000Z,0
2023-04-27T03:38:22.000Z,0
2023-04-27T03:39:38.000Z,0
2023-04-27T03:40:54.000Z,0
2023-04-27T03:42:11.000Z,0
2023-04-27T03:43:27.000Z,0
2023-04-27T03:44:43.000Z,0
2023-04-27T03:45:58.000Z,0
2023-04-27T03:47:14.000Z,0
2023-04-27T03:48:31.000Z,0
2023-04-27T03:49:47.000Z,0
2023-04-27T03:51:03.000Z,0
2023-04-27T03:52:19.000Z,0
2023-04-27T03:53:35.000Z,0
2023-04-27T03:54:51.000Z,0
2023-04-27T03:56:08.000Z,0
2023-04-27T03:57:24.000Z,5
2023-04-27T03:58:40.000Z,5
2023-04-27T03:59:56.000Z,5
2023-04-27T04:01:12.000Z,5
2023-04-27T04:02:27.140Z,5
2023-04-27T04:03:44.000Z,5
2023-04-27T04:05:00.000Z,11
2023-04-27T04:06:16.000Z,11
2023-04-27T04:07:32.000Z,11
2023-04-27T04:08:48.094Z,11
2023-04-27T04:10:05.000Z,16
2023-04-27T04:11:21.000Z,16
2023-04-27T04:12:37.000Z,16
2023-04-27T04:13:53.000Z,22
2023-04-27T04:15:10.000Z,22
2023-04-27T04:16:26.000Z,22
2023-04-27T04:17:42.000Z,28
2023-04-27T04:18:57.000Z,28
2023-04-27T04:20:13.000Z,33
2023-04-27T04:21:30.000Z,33
2023-04-27T04:22:46.000Z,39
2023-04-27T04:24:02.000Z,39
2023-04-27T04:25:18.000Z,45
2023-04-27T04:26:34.000Z,45
2023-04-27T04:27:49.971Z,45
2023-04-27T04:29:06.161Z,50
2023-04-27T04:30:23.000Z,50
2023-04-27T04:31:39.000Z,56
2023-04-27T04:32:55.000Z,56
2023-04-27T04:34:11.000Z,61
2023-04-27T04:35:27.000Z,61
2023-04-27T04:36:43.000Z,67
2023-04-27T04:37:59.000Z,95
2023-04-27T04:39:15.000Z,157
2023-04-27T04:40:31.000Z,202
2023-04-27T04:41:48.000Z,180
2023-04-27T04:43:04.000Z,112
2023-04-27T04:44:20.000Z,151
2023-04-27T04:45:36.000Z,236
2023-04-27T04:46:51.848Z,258
2023-04-27T04:48:09.000Z,258
2023-04-27T04:49:25.000Z,258
2023-04-27T04:50:41.000Z,258
2023-04-27T04:51:56.000Z,258
2023-04-27T04:53:12.000Z,264
2023-04-27T04:54:29.000Z,270
2023-04-27T04:55:45.000Z,270
2023-04-27T04:57:01.000Z,230
2023-04-27T04:58:17.000Z,163
2023-04-27T04:59:32.768Z,146
2023-04-27T05:00:49.000Z,146
2023-04-27T05:02:06.000Z,151
2023-04-27T05:03:22.000Z,196
2023-04-27T05:04:38.000Z,281
2023-04-27T05:05:54.000Z,303
2023-04-27T05:07:10.000Z,315
2023-04-27T05:08:26.000Z,320
2023-04-27T05:09:42.000Z,326
2023-04-27T05:10:58.000Z,331
2023-04-27T05:12:14.000Z,343
2023-04-27T05:13:30.881Z,343
2023-04-27T05:14:47.000Z,298
2023-04-27T05:16:03.000Z,236
2023-04-27T05:17:19.000Z,219
2023-04-27T05:18:35.000Z,247
2023-04-27T05:19:51.000Z,225
2023-04-27T05:21:07.021Z,236
2023-04-27T05:22:24.000Z,348
2023-04-27T05:23:40.000Z,421
2023-04-27T05:24:55.000Z,450
2023-04-27T05:26:11.000Z,455
2023-04-27T05:27:27.000Z,478
2023-04-27T05:28:43.178Z,483
2023-04-27T05:29:59.368Z,506
2023-04-27T05:31:15.558Z,556
2023-04-27T05:32:31.000Z,579
2023-04-27T05:33:47.000Z,416
2023-04-27T05:35:04.000Z,247
2023-04-27T05:36:20.000Z,230
2023-04-27T05:37:36.000Z,225
2023-04-27T05:38:52.000Z,230
2023-04-27T05:40:08.000Z,236
2023-04-27T05:41:25.000Z,320
2023-04-27T05:42:41.000Z,416
2023-04-27T05:43:57.000Z,331
2023-04-27T05:45:13.000Z,247
2023-04-27T05:46:29.000Z,360
2023-04-27T05:47:46.000Z,472
2023-04-27T05:49:01.000Z,495
2023-04-27T05:50:17.000Z,540
2023-04-27T05:51:33.000Z,562
2023-04-27T05:52:49.000Z,540
2023-04-27T05:54:05.015Z,562
2023-04-27T05:55:22.000Z,590
2023-04-27T05:56:37.396Z,500
2023-04-27T05:57:54.000Z,315
2023-04-27T05:59:10.000Z,309
2023-04-27T06:00:26.000Z,489
2023-04-27T06:01:42.156Z,663
2023-04-27T06:02:58.347Z,686
2023-04-27T06:04:15.000Z,641
2023-04-27T06:05:30.000Z,618
2023-04-27T06:06:46.000Z,635
2023-04-27T06:08:03.000Z,658
2023-04-27T06:09:18.312Z,590
2023-04-27T06:10:34.501Z,365
2023-04-27T06:11:51.000Z,281
2023-04-27T06:13:07.000Z,275
2023-04-27T06:14:24.000Z,270
2023-04-27T06:15:40.000Z,275
2023-04-27T06:16:56.000Z,281
2023-04-27T06:18:12.000Z,399
2023-04-27T06:19:28.000Z,753
2023-04-27T06:20:44.019Z,984
2023-04-27T06:21:59.225Z,1046
2023-04-27T06:23:16.000Z,1091
2023-04-27T06:24:32.000Z,1085
2023-04-27T06:25:48.000Z,1096
2023-04-27T06:27:03.984Z,1130
2023-04-27T06:28:21.000Z,1192
2023-04-27T06:29:37.000Z,1248
2023-04-27T06:30:53.000Z,1226
2023-04-27T06:32:09.000Z,1265
2023-04-27T06:33:25.000Z,759
2023-04-27T06:34:42.000Z,326
2023-04-27T06:35:58.000Z,376
2023-04-27T06:37:14.000Z,888
2023-04-27T06:38:29.000Z,1293
2023-04-27T06:39:45.000Z,995
2023-04-27T06:41:02.000Z,421
2023-04-27T06:42:18.000Z,365
2023-04-27T06:43:34.000Z,911
2023-04-27T06:44:49.660Z,838
2023-04-27T06:46:06.000Z,320
2023-04-27T06:47:23.000Z,292
2023-04-27T06:48:39.000Z,286
2023-04-27T06:49:55.000Z,286
2023-04-27T06:51:11.000Z,286
2023-04-27T06:52:27.000Z,281
2023-04-27T06:53:43.000Z,292
2023-04-27T06:54:59.000Z,388
2023-04-27T06:56:15.000Z,697
2023-04-27T06:57:31.000Z,298
2023-04-27T06:58:47.000Z,292
2023-04-27T07:00:02.957Z,286
2023-04-27T07:01:20.000Z,292
2023-04-27T07:02:36.000Z,292
2023-04-27T07:03:52.000Z,292
2023-04-27T07:05:08.000Z,292
2023-04-27T07:06:23.908Z,298
2023-04-27T07:07:41.000Z,298
2023-04-27T07:08:57.000Z,298
2023-04-27T07:10:12.477Z,298
2023-04-27T07:11:28.000Z,298
2023-04-27T07:12:44.000Z,298
2023-04-27T07:14:01.000Z,298
2023-04-27T07:15:17.000Z,298
2023-04-27T07:16:33.000Z,298
2023-04-27T07:17:49.000Z,303
2023-04-27T07:19:05.000Z,303
2023-04-27T07:20:21.015Z,303
2023-04-27T07:21:38.000Z,298
2023-04-27T07:22:54.000Z,303
2023-04-27T07:24:10.000Z,298
2023-04-27T07:25:26.000Z,298
2023-04-27T07:26:42.000Z,298
2023-04-27T07:27:58.000Z,298
2023-04-27T07:29:14.000Z,298
2023-04-27T07:30:29.552Z,303
2023-04-27T07:31:46.000Z,303
2023-04-27T07:33:02.000Z,303
2023-04-27T07:34:19.000Z,303
2023-04-27T07:35:35.000Z,303
2023-04-27T07:36:51.000Z,309
2023-04-27T07:38:06.690Z,309
2023-04-27T07:39:22.880Z,315
2023-04-27T07:40:40.000Z,309
2023-04-27T07:41:56.000Z,309
2023-04-27T07:43:12.000Z,309
2023-04-27T07:44:26.654Z,315
2023-04-27T07:45:42.845Z,320
2023-04-27T07:46:59.034Z,320
2023-04-27T07:48:16.000Z,320
2023-04-27T07:49:32.000Z,320
2023-04-27T07:50:48.000Z,326
2023-04-27T07:52:04.000Z,331
2023-04-27T07:53:20.000Z,326
2023-04-27T07:54:37.000Z,326
2023-04-27T07:55:53.000Z,326
2023-04-27T07:57:09.000Z,326
2023-04-27T07:58:25.000Z,326
2023-04-27T07:59:40.933Z,326
2023-04-27T08:00:57.000Z,326
2023-04-27T08:02:13.000Z,326
2023-04-27T08:03:29.000Z,326
2023-04-27T08:04:45.000Z,326
2023-04-27T08:06:00.898Z,326
2023-04-27T08:07:18.000Z,331
2023-04-27T08:08:33.277Z,331
2023-04-27T08:09:50.000Z,343
2023-04-27T08:11:06.000Z,337
2023-04-27T08:12:22.000Z,331
2023-04-27T08:13:39.000Z,331
2023-04-27T08:14:55.000Z,331
2023-04-27T08:16:11.000Z,331
2023-04-27T08:17:26.000Z,337
2023-04-27T08:18:42.000Z,337
2023-04-27T08:19:59.000Z,337
2023-04-27T08:21:15.000Z,331
2023-04-27T08:22:31.000Z,337
2023-04-27T08:24:35.570Z,337
2023-04-27T08:25:03.000Z,331
2023-04-27T08:26:19.000Z,337
2023-04-27T08:27:35.139Z,337
2023-04-27T08:28:52.000Z,337
2023-04-27T08:30:08.000Z,337
2023-04-27T08:31:23.709Z,337
2023-04-27T08:32:40.000Z,337
2023-04-27T08:33:57.000Z,343
2023-04-27T08:35:12.000Z,343
2023-04-27T08:36:28.000Z,343
2023-04-27T08:37:44.000Z,343
2023-04-27T08:39:00.000Z,343
2023-04-27T08:40:17.000Z,343
2023-04-27T08:41:32.248Z,343
2023-04-27T08:42:48.438Z,348
2023-04-27T08:44:05.000Z,343
2023-04-27T08:45:21.000Z,343
2023-04-27T08:46:38.000Z,343
2023-04-27T08:47:54.000Z,343
2023-04-27T08:49:10.000Z,337
2023-04-27T08:50:26.000Z,337
2023-04-27T08:51:41.000Z,337
2023-04-27T08:52:57.000Z,337
2023-04-27T08:54:14.000Z,337
2023-04-27T08:55:29.357Z,343
2023-04-27T08:56:46.000Z,337
2023-04-27T08:58:02.000Z,343
2023-04-27T08:59:18.000Z,343
2023-04-27T09:00:34.117Z,348
2023-04-27T09:01:51.000Z,348
2023-04-27T09:03:07.000Z,348
2023-04-27T09:04:23.000Z,348
2023-04-27T09:05:39.000Z,348
2023-04-27T09:06:55.068Z,348
2023-04-27T09:08:11.000Z,348
2023-04-27T09:09:26.464Z,354
2023-04-27T09:10:43.000Z,360
2023-04-27T09:11:59.000Z,360
2023-04-27T09:13:16.000Z,371
2023-04-27T09:14:32.000Z,410
2023-04-27T09:15:48.000Z,1704
2023-04-27T09:17:03.606Z,2857
2023-04-27T09:18:20.000Z,1845
2023-04-27T09:19:35.984Z,680
2023-04-27T09:20:52.175Z,455
2023-04-27T09:22:08.365Z,540
2023-04-27T09:23:25.000Z,607
2023-04-27T09:24:40.000Z,545
2023-04-27T09:25:56.000Z,399
2023-04-27T09:27:13.000Z,382
2023-04-27T09:28:29.000Z,376
2023-04-27T09:29:45.000Z,376
2023-04-27T09:31:01.000Z,376
2023-04-27T09:32:17.000Z,388
2023-04-27T09:33:34.000Z,382
2023-04-27T09:34:50.000Z,376
2023-04-27T09:36:06.000Z,365
2023-04-27T09:37:21.663Z,365
2023-04-27T09:38:38.000Z,365
2023-04-27T09:39:54.044Z,365
2023-04-27T09:41:09.250Z,371
2023-04-27T09:42:26.000Z,376
2023-04-27T09:43:42.000Z,376
2023-04-27T09:44:58.000Z,376
2023-04-27T09:46:15.000Z,376
2023-04-27T09:47:30.000Z,371
2023-04-27T09:48:46.000Z,376
2023-04-27T09:50:02.000Z,376
2023-04-27T09:51:17.793Z,382
2023-04-27T09:52:34.000Z,382
2023-04-27T09:53:51.000Z,376
2023-04-27T09:55:07.000Z,376
2023-04-27T09:56:22.555Z,376
2023-04-27T09:57:38.745Z,371
2023-04-27T09:58:55.000Z,376
2023-04-27T10:00:12.000Z,382
2023-04-27T10:01:28.000Z,382
2023-04-27T10:02:44.000Z,388
2023-04-27T10:03:59.000Z,393
2023-04-27T10:05:14.903Z,410
2023-04-27T10:06:31.093Z,410
2023-04-27T10:07:47.282Z,433
2023-04-27T10:09:03.473Z,433
2023-04-27T10:10:20.000Z,438
2023-04-27T10:11:35.854Z,455
2023-04-27T10:12:53.000Z,483
2023-04-27T10:14:09.000Z,506
2023-04-27T10:15:24.424Z,556
2023-04-27T10:16:41.000Z,1968
2023-04-27T10:17:57.000Z,2047
2023-04-27T10:19:13.000Z,489
2023-04-27T10:20:29.000Z,472
2023-04-27T10:21:44.390Z,478
2023-04-27T10:23:01.000Z,523
2023-04-27T10:24:17.000Z,1490
2023-04-27T10:25:32.961Z,1237
2023-04-27T10:26:50.000Z,1113
2023-04-27T10:28:06.000Z,1451
2023-04-27T10:29:21.530Z,1215
2023-04-27T10:30:38.000Z,1828
2023-04-27T10:31:54.000Z,1310
2023-04-27T10:33:11.000Z,562
2023-04-27T10:34:27.000Z,635
2023-04-27T10:35:43.000Z,2407
2023-04-27T10:36:58.000Z,1760
2023-04-27T10:38:13.877Z,1203
2023-04-27T10:39:31.000Z,2300
2023-04-27T10:40:47.000Z,2199
2023-04-27T10:42:03.000Z,2452
2023-04-27T10:43:19.000Z,1850
2023-04-27T10:44:34.825Z,928
2023-04-27T10:45:51.016Z,950
2023-04-27T10:47:08.000Z,961
2023-04-27T10:48:24.000Z,742
2023-04-27T10:49:40.000Z,720
2023-04-27T10:50:56.000Z,753
2023-04-27T10:52:12.000Z,1631
2023-04-27T10:53:27.165Z,1811
2023-04-27T10:54:43.353Z,3346
2023-04-27T10:55:59.542Z,2745
2023-04-27T10:57:16.000Z,1445
2023-04-27T10:58:31.919Z,1665
2023-04-27T10:59:49.000Z,1873
2023-04-27T11:01:05.000Z,3116
2023-04-27T11:02:21.000Z,3054
2023-04-27T11:03:37.000Z,1929
2023-04-27T11:04:53.000Z,3015
2023-04-27T11:06:10.000Z,2497
2023-04-27T11:07:25.240Z,1766
2023-04-27T11:08:41.430Z,1946
2023-04-27T11:09:57.000Z,781
2023-04-27T11:11:12.823Z,815
2023-04-27T11:12:30.000Z,1800
2023-04-27T11:13:46.000Z,3425
2023-04-27T11:15:02.000Z,2761
2023-04-27T11:16:17.579Z,1951
2023-04-27T11:17:34.000Z,2998
2023-04-27T11:18:50.000Z,2986
2023-04-27T11:20:07.000Z,1676
2023-04-27T11:21:22.333Z,1057
2023-04-27T11:22:39.000Z,871
2023-04-27T11:23:54.711Z,815
2023-04-27T11:25:10.900Z,770
2023-04-27T11:26:27.000Z,725
2023-04-27T11:27:43.000Z,736
2023-04-27T11:28:59.000Z,720
2023-04-27T11:30:15.000Z,697
2023-04-27T11:31:31.000Z,669
2023-04-27T11:32:48.000Z,658
2023-04-27T11:34:03.234Z,641
2023-04-27T11:35:19.421Z,624
2023-04-27T11:36:35.609Z,624
2023-04-27T11:37:52.000Z,618
2023-04-27T11:39:08.000Z,624
2023-04-27T11:40:24.175Z,646
2023-04-27T11:41:41.000Z,675
2023-04-27T11:42:56.000Z,714
2023-04-27T11:44:12.000Z,753
2023-04-27T11:45:28.000Z,781
2023-04-27T11:46:45.000Z,810
2023-04-27T11:48:01.000Z,821
2023-04-27T11:49:17.000Z,821
2023-04-27T11:50:32.699Z,804
2023-04-27T11:51:49.000Z,821
2023-04-27T11:53:06.000Z,838
2023-04-27T11:54:22.000Z,871
2023-04-27T11:55:37.454Z,1023
2023-04-27T11:56:53.643Z,1884
2023-04-27T11:58:09.832Z,3341
2023-04-27T11:59:26.000Z,3228
2023-04-27T12:00:42.000Z,4263
2023-04-27T12:01:58.000Z,2795
2023-04-27T12:03:14.000Z,2992
2023-04-27T12:04:29.791Z,4230
2023-04-27T12:05:46.000Z,4252
2023-04-27T12:07:03.000Z,3915
2023-04-27T12:08:19.000Z,2379
2023-04-27T12:09:34.546Z,1665
2023-04-27T12:10:51.000Z,2328
2023-04-27T12:12:07.000Z,3301
2023-04-27T12:13:23.112Z,3566
2023-04-27T12:14:39.301Z,3616
2023-04-27T12:15:55.000Z,2475
2023-04-27T12:17:11.000Z,2193
2023-04-27T12:18:26.883Z,3391
2023-04-27T12:19:44.000Z,3723
2023-04-27T12:21:00.000Z,3706
2023-04-27T12:22:16.000Z,3391
2023-04-27T12:23:32.000Z,2857
2023-04-27T12:24:48.000Z,2356
2023-04-27T12:26:04.017Z,1940
2023-04-27T12:27:21.000Z,2745
2023-04-27T12:28:37.000Z,3105
2023-04-27T12:29:52.584Z,3166
2023-04-27T12:31:09.000Z,2930
2023-04-27T12:32:24.000Z,2317
2023-04-27T12:33:41.000Z,1524
2023-04-27T12:34:56.356Z,1563
2023-04-27T12:36:13.000Z,2458
2023-04-27T12:37:29.000Z,2688
2023-04-27T12:38:44.922Z,3082
2023-04-27T12:40:02.000Z,3571
2023-04-27T12:41:17.299Z,3723
2023-04-27T12:42:34.000Z,3436
2023-04-27T12:43:50.000Z,2030
2023-04-27T12:45:05.865Z,2306
2023-04-27T12:46:23.000Z,3616
2023-04-27T12:47:39.000Z,3875
2023-04-27T12:48:54.000Z,3909
2023-04-27T12:50:10.000Z,3667
2023-04-27T12:51:26.000Z,3532
2023-04-27T12:52:43.000Z,3352
2023-04-27T12:53:59.000Z,3453
2023-04-27T12:55:15.000Z,2958
2023-04-27T12:56:31.000Z,2154
2023-04-27T12:57:47.000Z,3661
2023-04-27T12:59:03.000Z,4072
2023-04-27T13:00:20.000Z,3881
2023-04-27T13:01:36.000Z,3763
2023-04-27T13:02:52.000Z,3780
2023-04-27T13:04:07.714Z,3279
2023-04-27T13:05:22.919Z,2593
2023-04-27T13:06:40.000Z,1648
2023-04-27T13:07:56.000Z,1693
2023-04-27T13:09:12.000Z,2176
2023-04-27T13:10:28.000Z,2851
2023-04-27T13:11:43.863Z,3408
2023-04-27T13:13:01.000Z,3341
2023-04-27T13:14:17.000Z,3234
2023-04-27T13:15:33.000Z,2880
2023-04-27T13:16:49.000Z,2711
2023-04-27T13:18:05.000Z,3155
2023-04-27T13:19:21.000Z,2756
2023-04-27T13:20:38.000Z,1226
2023-04-27T13:21:53.000Z,2401
2023-04-27T13:23:09.000Z,2666
2023-04-27T13:24:25.000Z,2289
2023-04-27T13:25:40.960Z,2480
2023-04-27T13:26:58.000Z,2981
2023-04-27T13:28:14.000Z,3206
2023-04-27T13:29:29.527Z,2671
2023-04-27T13:30:46.000Z,2525
2023-04-27T13:32:02.000Z,2604
2023-04-27T13:33:19.000Z,2407
2023-04-27T13:34:35.000Z,2328
2023-04-27T13:35:51.000Z,1648
2023-04-27T13:37:06.662Z,1901
2023-04-27T13:38:22.000Z,2109
2023-04-27T13:39:39.000Z,2086
2023-04-27T13:40:55.000Z,2126
2023-04-27T13:42:11.000Z,2008
2023-04-27T13:43:27.000Z,1755
2023-04-27T13:44:43.000Z,1226
2023-04-27T13:45:59.000Z,1530
2023-04-27T13:47:16.000Z,1468
2023-04-27T13:48:32.000Z,1158
2023-04-27T13:49:47.565Z,1372
2023-04-27T13:51:03.755Z,1096
2023-04-27T13:52:19.943Z,1254
2023-04-27T13:53:37.000Z,1501
2023-04-27T13:54:52.000Z,1687
2023-04-27T13:56:08.000Z,1940
2023-04-27T13:57:24.000Z,2081
2023-04-27T13:58:40.000Z,2075
2023-04-27T13:59:57.000Z,2008
2023-04-27T14:01:12.279Z,1940
2023-04-27T14:02:28.000Z,2458
2023-04-27T14:03:44.000Z,2576
2023-04-27T14:05:00.000Z,2638
2023-04-27T14:06:16.057Z,2520
2023-04-27T14:07:32.245Z,2025
2023-04-27T14:08:49.000Z,1620
2023-04-27T14:10:05.000Z,2058
2023-04-27T14:11:21.000Z,2148
2023-04-27T14:12:38.000Z,2013
2023-04-27T14:13:54.000Z,2025
2023-04-27T14:15:10.000Z,2261
2023-04-27T14:16:26.000Z,2458
2023-04-27T14:17:42.000Z,2491
2023-04-27T14:18:57.000Z,2632
2023-04-27T14:20:14.000Z,2756
2023-04-27T14:21:29.338Z,2688
2023-04-27T14:22:46.000Z,2688
2023-04-27T14:24:02.000Z,2604
2023-04-27T14:25:17.905Z,2458
2023-04-27T14:26:35.000Z,1940
2023-04-27T14:27:51.000Z,1456
2023-04-27T14:29:07.000Z,1946
2023-04-27T14:30:23.000Z,2351
2023-04-27T14:31:39.000Z,2075
2023-04-27T14:32:56.000Z,2373
2023-04-27T14:34:12.000Z,2199
2023-04-27T14:35:27.000Z,2131
2023-04-27T14:36:43.000Z,2379
2023-04-27T14:37:59.000Z,2126
2023-04-27T14:39:16.000Z,1726
2023-04-27T14:40:32.000Z,1687
2023-04-27T14:41:48.000Z,1873
2023-04-27T14:43:04.000Z,1276
2023-04-27T14:44:20.000Z,1912
2023-04-27T14:45:36.000Z,2070
2023-04-27T14:46:53.000Z,1687
2023-04-27T14:48:09.000Z,1220
2023-04-27T14:49:24.510Z,1445
2023-04-27T14:50:40.699Z,1715
2023-04-27T14:51:56.000Z,1845
2023-04-27T14:53:13.000Z,1788
2023-04-27T14:54:29.000Z,1788
2023-04-27T14:55:44.470Z,1929
2023-04-27T14:57:01.000Z,2058
2023-04-27T14:58:16.848Z,2081
2023-04-27T14:59:33.038Z,1805
2023-04-27T15:00:50.000Z,1946
2023-04-27T15:02:05.415Z,1822
2023-04-27T15:03:22.000Z,1676
2023-04-27T15:04:37.793Z,1653
2023-04-27T15:05:54.000Z,1575
2023-04-27T15:07:11.000Z,1473
2023-04-27T15:08:27.000Z,1237
2023-04-27T15:09:42.000Z,1018
2023-04-27T15:10:58.000Z,1057
2023-04-27T15:12:13.943Z,1164
2023-04-27T15:13:31.000Z,1136
2023-04-27T15:14:47.000Z,1046
2023-04-27T15:16:03.000Z,945
2023-04-27T15:17:19.000Z,888
2023-04-27T15:18:35.000Z,855
2023-04-27T15:19:52.000Z,815
2023-04-27T15:21:08.000Z,759
2023-04-27T15:22:24.000Z,748
2023-04-27T15:23:40.000Z,742
2023-04-27T15:24:56.000Z,720
2023-04-27T15:26:12.000Z,714
2023-04-27T15:27:28.000Z,714
2023-04-27T15:28:44.000Z,697
2023-04-27T15:30:00.000Z,686
2023-04-27T15:31:15.785Z,675
2023-04-27T15:32:32.000Z,680
2023-04-27T15:33:48.163Z,652
2023-04-27T15:35:05.000Z,646
2023-04-27T15:36:20.539Z,630
2023-04-27T15:37:37.000Z,607
2023-04-27T15:38:53.000Z,607
2023-04-27T15:40:10.000Z,624
2023-04-27T15:41:26.000Z,613
2023-04-27T15:42:41.000Z,607
2023-04-27T15:43:57.000Z,601
2023-04-27T15:45:13.000Z,579
2023-04-27T15:46:30.000Z,556
2023-04-27T15:47:46.000Z,540
2023-04-27T15:49:01.443Z,523
2023-04-27T15:50:18.000Z,511
2023-04-27T15:51:34.000Z,506
2023-04-27T15:52:50.009Z,500
2023-04-27T15:54:07.000Z,500
2023-04-27T15:55:23.000Z,495
2023-04-27T15:56:39.000Z,489
2023-04-27T15:57:55.000Z,478
2023-04-27T15:59:10.000Z,466
2023-04-27T16:00:26.155Z,455
2023-04-27T16:01:43.000Z,450
2023-04-27T16:02:59.000Z,444
2023-04-27T16:04:15.000Z,444
2023-04-27T16:05:31.000Z,444
2023-04-27T16:06:48.000Z,450
2023-04-27T16:08:04.000Z,461
2023-04-27T16:09:20.000Z,478
2023-04-27T16:10:36.000Z,495
2023-04-27T16:11:52.000Z,495
2023-04-27T16:13:09.000Z,495
2023-04-27T16:14:25.000Z,489
2023-04-27T16:15:40.000Z,478
2023-04-27T16:16:56.000Z,478
2023-04-27T16:18:12.000Z,478
2023-04-27T16:19:28.000Z,472
2023-04-27T16:20:45.000Z,461
2023-04-27T16:22:01.000Z,455
2023-04-27T16:23:17.000Z,455
2023-04-27T16:24:33.000Z,461
2023-04-27T16:25:48.935Z,472
2023-04-27T16:27:06.000Z,489
2023-04-27T16:28:22.000Z,511
2023-04-27T16:29:38.000Z,523
2023-04-27T16:30:54.000Z,528
2023-04-27T16:32:09.000Z,528
2023-04-27T16:33:26.000Z,511
2023-04-27T16:34:42.000Z,500
2023-04-27T16:35:58.000Z,500
2023-04-27T16:37:13.647Z,500
2023-04-27T16:38:30.000Z,500
2023-04-27T16:39:46.026Z,489
2023-04-27T16:41:03.000Z,472
2023-04-27T16:42:18.402Z,455
2023-04-27T16:43:35.000Z,438
2023-04-27T16:44:50.778Z,421
2023-04-27T16:46:07.000Z,393
2023-04-27T16:47:24.000Z,365
2023-04-27T16:48:39.000Z,337
2023-04-27T16:49:55.000Z,320
2023-04-27T16:51:11.000Z,298
2023-04-27T16:52:26.921Z,292
2023-04-27T16:53:44.000Z,286
2023-04-27T16:55:00.000Z,286
2023-04-27T16:56:16.000Z,286
2023-04-27T16:57:32.000Z,286
2023-04-27T16:58:48.000Z,286
2023-04-27T17:00:05.000Z,281
2023-04-27T17:01:21.000Z,286
2023-04-27T17:02:37.000Z,286
2023-04-27T17:03:53.000Z,292
2023-04-27T17:05:08.000Z,292
2023-04-27T17:06:25.000Z,298
2023-04-27T17:07:41.000Z,298
2023-04-27T17:08:57.000Z,298
2023-04-27T17:10:13.000Z,303
2023-04-27T17:11:29.000Z,303
2023-04-27T17:12:44.957Z,298
2023-04-27T17:14:02.000Z,292
2023-04-27T17:15:18.000Z,281
2023-04-27T17:16:34.000Z,275
2023-04-27T17:17:49.711Z,264
2023-04-27T17:19:06.000Z,258
2023-04-27T17:20:23.000Z,253
2023-04-27T17:21:38.000Z,241
2023-04-27T17:22:54.000Z,230
2023-04-27T17:24:09.671Z,219
2023-04-27T17:25:26.000Z,208
2023-04-27T17:26:43.000Z,196
2023-04-27T17:27:59.000Z,191
2023-04-27T17:29:15.000Z,185
2023-04-27T17:30:31.000Z,185
2023-04-27T17:31:47.000Z,185
2023-04-27T17:33:03.000Z,180
2023-04-27T17:34:20.000Z,174
2023-04-27T17:35:36.000Z,168
2023-04-27T17:36:52.000Z,168